createdAt,value
2023-04-10T00:00:13.347Z,42.23
2023-04-10T00:02:40.126Z,41.89
2023-04-10T00:05:09.891Z,42.58
2023-04-10T00:07:38.048Z,41.84
2023-04-10T00:10:05.343Z,42.09
2023-04-10T00:12:32.672Z,42.38
2023-04-10T00:14:59.674Z,42.93
2023-04-10T00:17:26.463Z,42.32
2023-04-10T00:19:53.301Z,42.34
2023-04-10T00:22:20.361Z,42.68
2023-04-10T00:24:47.265Z,42.81
2023-04-10T00:27:14.069Z,42.92
2023-04-10T00:29:43.450Z,42.80
2023-04-10T00:32:13.044Z,42.98
2023-04-10T00:34:40.019Z,43.17
2023-04-10T00:37:07.318Z,43.14
2023-04-10T00:39:34.453Z,43.18
2023-04-10T00:42:02.416Z,43.04
2023-04-10T00:44:29.220Z,43.33
2023-04-10T00:46:56.279Z,43.89
2023-04-10T00:49:23.318Z,43.67
2023-04-10T00:51:50.124Z,43.51
2023-04-10T00:54:17.104Z,43.27
2023-04-10T00:56:44.997Z,43.40
2023-04-10T00:59:12.081Z,43.98
2023-04-10T01:01:39.303Z,43.42
2023-04-10T01:04:07.046Z,44.17
2023-04-10T01:06:59.273Z,44.39
2023-04-10T01:09:47.680Z,44.03
2023-04-10T01:12:39.423Z,43.78
2023-04-10T01:15:11.057Z,44.69
2023-04-10T01:18:06.880Z,44.73
2023-04-10T01:20:39.798Z,44.49
2023-04-10T01:23:28.122Z,44.25
2023-04-10T01:26:06.053Z,44.74
2023-04-10T01:28:45.018Z,44.97
2023-04-10T01:31:17.406Z,44.49
2023-04-10T01:33:49.798Z,45.10
2023-04-10T01:36:31.890Z,44.80
2023-04-10T01:38:58.988Z,44.75
2023-04-10T01:41:27.935Z,44.92
2023-04-10T01:43:58.083Z,45.15
2023-04-10T01:46:27.288Z,44.12
2023-04-10T01:48:56.149Z,44.38
2023-04-10T01:51:25.856Z,44.34
2023-04-10T01:53:53.175Z,44.63
2023-04-10T01:56:24.822Z,44.55
2023-04-10T01:58:51.804Z,44.82
2023-04-10T02:01:29.899Z,44.41
2023-04-10T02:03:59.354Z,44.86
2023-04-10T02:06:36.655Z,45.00
2023-04-10T02:09:32.942Z,44.59
2023-04-10T02:12:06.782Z,44.53
2023-04-10T02:14:39.275Z,45.22
2023-04-10T02:17:07.171Z,44.96
2023-04-10T02:19:35.768Z,45.09
2023-04-10T02:22:06.072Z,45.58
2023-04-10T02:24:34.900Z,45.42
2023-04-10T02:27:01.841Z,45.34
2023-04-10T02:29:28.582Z,45.55
2023-04-10T02:31:55.928Z,46.46
2023-04-10T02:34:22.764Z,45.96
2023-04-10T02:36:49.520Z,45.89
2023-04-10T02:39:16.340Z,46.34
2023-04-10T02:41:49.340Z,46.56
2023-04-10T02:44:16.478Z,46.83
2023-04-10T02:46:43.871Z,46.65
2023-04-10T02:49:12.314Z,46.97
2023-04-10T02:51:38.947Z,46.95
2023-04-10T02:54:06.013Z,46.93
2023-04-10T02:56:35.032Z,47.20
2023-04-10T02:59:02.202Z,47.36
2023-04-10T03:01:30.039Z,47.12
2023-04-10T03:03:58.447Z,47.67
2023-04-10T03:06:29.176Z,47.61
2023-04-10T03:08:57.458Z,47.72
2023-04-10T03:11:24.290Z,47.88
2023-04-10T03:13:51.420Z,47.99
2023-04-10T03:16:18.919Z,47.73
2023-04-10T03:18:46.591Z,47.64
2023-04-10T03:21:13.298Z,48.02
2023-04-10T03:23:40.385Z,47.42
2023-04-10T03:26:07.551Z,47.63
2023-04-10T03:28:37.934Z,48.08
2023-04-10T03:31:05.896Z,47.77
2023-04-10T03:33:35.527Z,47.82
2023-04-10T03:36:02.947Z,48.42
2023-04-10T03:38:29.714Z,48.28
2023-04-10T03:40:56.454Z,48.04
2023-04-10T03:43:25.782Z,48.45
2023-04-10T03:45:52.578Z,48.46
2023-04-10T03:48:21.105Z,48.53
2023-04-10T03:50:47.891Z,48.78
2023-04-10T03:53:19.141Z,48.44
2023-04-10T03:55:46.218Z,48.96
2023-04-10T03:58:13.290Z,48.26
2023-04-10T04:00:40.326Z,48.29
2023-04-10T04:03:18.267Z,49.26
2023-04-10T04:06:00.230Z,48.57
2023-04-10T04:08:43.979Z,49.63
2023-04-10T04:11:11.477Z,48.77
2023-04-10T04:14:04.498Z,49.04
2023-04-10T04:16:51.427Z,48.93
2023-04-10T04:19:34.189Z,49.43
2023-04-10T04:22:15.965Z,49.21
2023-04-10T04:25:03.171Z,49.30
2023-04-10T04:27:49.915Z,49.96
2023-04-10T04:30:36.910Z,49.98
2023-04-10T04:33:15.313Z,49.50
2023-04-10T04:35:57.152Z,49.52
2023-04-10T04:38:50.188Z,49.85
2023-04-10T04:41:46.093Z,50.41
2023-04-10T04:44:24.891Z,50.25
2023-04-10T04:47:09.095Z,50.40
2023-04-10T04:49:54.742Z,50.29
2023-04-10T04:52:44.454Z,50.04
2023-04-10T04:55:37.116Z,50.62
2023-04-10T04:58:24.606Z,50.33
2023-04-10T05:01:09.871Z,49.98
2023-04-10T05:04:03.267Z,50.72
2023-04-10T05:06:55.849Z,50.38
2023-04-10T05:09:54.485Z,50.56
2023-04-10T05:12:41.911Z,50.96
2023-04-10T05:15:26.961Z,50.80
2023-04-10T05:18:13.755Z,50.88
2023-04-10T05:21:06.913Z,50.46
2023-04-10T05:23:36.324Z,50.51
2023-04-10T05:26:21.464Z,50.59
2023-04-10T05:28:56.523Z,50.95
2023-04-10T05:31:36.644Z,50.92
2023-04-10T05:34:32.456Z,50.88
2023-04-10T05:37:15.997Z,51.05
2023-04-10T05:40:05.853Z,50.25
2023-04-10T05:42:50.523Z,50.56
2023-04-10T05:45:29.138Z,50.18
2023-04-10T05:48:07.688Z,50.53
2023-04-10T05:50:46.763Z,49.66
2023-04-10T05:53:31.811Z,50.04
2023-04-10T05:56:17.199Z,50.16
2023-04-10T05:59:21.168Z,50.22
2023-04-10T06:02:02.416Z,50.17
2023-04-10T06:04:29.451Z,49.73
2023-04-10T06:06:58.296Z,49.95
2023-04-10T06:09:25.773Z,49.78
2023-04-10T06:11:53.500Z,49.65
2023-04-10T06:14:23.099Z,48.95
2023-04-10T06:16:50.022Z,49.56
2023-04-10T06:19:16.739Z,49.40
2023-04-10T06:21:46.852Z,49.00
2023-04-10T06:24:14.353Z,48.96
2023-04-10T06:26:41.318Z,49.28
2023-04-10T06:29:09.363Z,48.81
2023-04-10T06:31:36.520Z,47.45
2023-04-10T06:34:04.112Z,47.09
2023-04-10T06:36:31.675Z,45.61
2023-04-10T06:39:04.393Z,44.51
2023-04-10T06:41:31.186Z,42.70
2023-04-10T06:44:07.161Z,41.17
2023-04-10T06:46:33.976Z,40.52
2023-04-10T06:49:01.521Z,40.21
2023-04-10T06:51:28.352Z,40.68
2023-04-10T06:53:55.442Z,39.12
2023-04-10T06:56:23.216Z,37.08
2023-04-10T06:58:50.336Z,34.33
2023-04-10T07:01:17.863Z,32.28
2023-04-10T07:03:45.142Z,31.82
2023-04-10T07:06:12.397Z,33.59
2023-04-10T07:08:39.107Z,35.54
2023-04-10T07:11:06.129Z,36.87
2023-04-10T07:13:35.715Z,37.73
2023-04-10T07:16:02.712Z,38.90
2023-04-10T07:18:29.941Z,39.69
2023-04-10T07:20:57.789Z,39.63
2023-04-10T07:23:25.931Z,39.15
2023-04-10T07:25:53.883Z,38.90
2023-04-10T07:28:40.296Z,38.69
2023-04-10T07:31:08.252Z,38.54
2023-04-10T07:33:42.167Z,38.16
2023-04-10T07:36:14.384Z,37.66
2023-04-10T07:38:44.338Z,37.90
2023-04-10T07:41:12.364Z,37.38
2023-04-10T07:43:51.455Z,37.43
2023-04-10T07:46:18.529Z,37.27
2023-04-10T07:48:59.944Z,36.88
2023-04-10T07:51:34.769Z,36.57
2023-04-10T07:54:02.831Z,37.14
2023-04-10T07:56:31.445Z,36.89
2023-04-10T07:59:01.039Z,36.95
2023-04-10T08:01:35.233Z,37.32
2023-04-10T08:04:07.724Z,36.73
2023-04-10T08:06:37.613Z,36.28
2023-04-10T08:09:06.624Z,36.50
2023-04-10T08:11:37.443Z,35.63
2023-04-10T08:14:07.001Z,36.15
2023-04-10T08:16:36.193Z,35.76
2023-04-10T08:19:03.440Z,35.90
2023-04-10T08:21:32.190Z,35.81
2023-04-10T08:24:01.202Z,35.76
2023-04-10T08:26:28.829Z,35.44
2023-04-10T08:28:58.018Z,35.08
2023-04-10T08:31:26.848Z,35.17
2023-04-10T08:33:53.955Z,34.90
2023-04-10T08:36:21.178Z,34.65
2023-04-10T08:38:48.601Z,34.34
2023-04-10T08:41:17.571Z,34.21
2023-04-10T08:43:46.121Z,34.53
2023-04-10T08:46:14.386Z,33.77
2023-04-10T08:48:48.288Z,33.49
2023-04-10T08:51:20.474Z,32.93
2023-04-10T08:53:59.515Z,31.92
2023-04-10T08:56:26.877Z,27.92
2023-04-10T08:58:53.695Z,22.99
2023-04-10T09:01:24.947Z,20.14
2023-04-10T09:03:51.868Z,17.44
2023-04-10T09:06:18.638Z,16.73
2023-04-10T09:08:45.621Z,14.92
2023-04-10T09:11:13.474Z,14.02
2023-04-10T09:13:43.778Z,13.79
2023-04-10T09:16:12.145Z,14.02
2023-04-10T09:18:48.125Z,13.71
2023-04-10T09:21:19.417Z,13.79
2023-04-10T09:23:48.175Z,13.33
2023-04-10T09:26:28.783Z,12.75
2023-04-10T09:29:05.906Z,12.50
2023-04-10T09:31:35.498Z,11.60
2023-04-10T09:34:21.693Z,10.39
2023-04-10T09:37:00.117Z,10.28
2023-04-10T09:39:43.372Z,11.18
2023-04-10T09:42:15.219Z,10.01
2023-04-10T09:44:46.038Z,10.44
2023-04-10T09:47:21.501Z,10.24
2023-04-10T09:49:53.664Z,11.62
2023-04-10T09:52:23.233Z,12.17
2023-04-10T09:54:50.353Z,11.70
2023-04-10T09:57:19.328Z,12.29
2023-04-10T09:59:51.353Z,12.57
2023-04-10T10:02:19.991Z,12.16
2023-04-10T10:04:49.552Z,11.11
2023-04-10T10:07:17.956Z,10.75
2023-04-10T10:09:46.767Z,10.18
2023-04-10T10:12:16.917Z,9.96
2023-04-10T10:14:51.049Z,10.62
2023-04-10T10:17:22.484Z,10.73
2023-04-10T10:20:09.235Z,9.87
2023-04-10T10:22:37.713Z,9.57
2023-04-10T10:25:04.901Z,9.13
2023-04-10T10:27:34.627Z,8.10
2023-04-10T10:30:08.456Z,7.64
2023-04-10T10:32:40.554Z,7.90
2023-04-10T10:35:08.627Z,7.93
2023-04-10T10:37:36.190Z,6.95
2023-04-10T10:40:20.975Z,6.07
2023-04-10T10:42:58.640Z,4.90
2023-04-10T10:45:37.531Z,5.77
2023-04-10T10:48:04.222Z,6.26
2023-04-10T10:50:54.017Z,5.92
2023-04-10T10:53:32.865Z,5.60
2023-04-10T10:56:00.243Z,5.89
2023-04-10T10:58:46.496Z,5.78
2023-04-10T11:01:13.385Z,5.98
2023-04-10T11:03:40.664Z,5.12
2023-04-10T11:06:09.599Z,5.14
2023-04-10T11:08:44.443Z,5.28
2023-04-10T11:11:27.520Z,5.25
2023-04-10T11:13:57.085Z,4.80
2023-04-10T11:16:46.908Z,5.61
2023-04-10T11:19:15.937Z,5.05
2023-04-10T11:22:04.369Z,5.11
2023-04-10T11:25:02.504Z,5.23
2023-04-10T11:27:40.555Z,5.28
2023-04-10T11:30:27.780Z,6.31
2023-04-10T11:32:58.120Z,7.36
2023-04-10T11:35:26.830Z,7.98
2023-04-10T11:38:11.772Z,8.36
2023-04-10T11:40:54.552Z,8.99
2023-04-10T11:43:21.503Z,8.89
2023-04-10T11:45:48.490Z,8.19
2023-04-10T11:48:17.515Z,7.95
2023-04-10T11:50:44.302Z,8.22
2023-04-10T11:53:21.622Z,8.75
2023-04-10T11:55:51.076Z,9.17
2023-04-10T11:58:32.815Z,10.88
2023-04-10T12:01:04.977Z,11.92
2023-04-10T12:03:39.815Z,11.83
2023-04-10T12:06:14.846Z,11.50
2023-04-10T12:08:47.758Z,11.35
2023-04-10T12:11:16.177Z,11.28
2023-04-10T12:13:42.947Z,11.25
2023-04-10T12:16:11.165Z,11.43
2023-04-10T12:18:38.988Z,11.34
2023-04-10T12:21:08.331Z,10.96
2023-04-10T12:23:39.251Z,11.47
2023-04-10T12:26:11.456Z,12.21
2023-04-10T12:28:39.930Z,13.10
2023-04-10T12:31:07.295Z,13.20
2023-04-10T12:33:34.384Z,13.52
2023-04-10T12:36:01.555Z,14.20
2023-04-10T12:38:42.759Z,13.85
2023-04-10T12:41:11.494Z,14.23
2023-04-10T12:43:42.637Z,14.04
2023-04-10T12:46:11.063Z,14.20
2023-04-10T12:48:38.172Z,13.87
2023-04-10T12:51:05.114Z,14.20
2023-04-10T12:53:31.970Z,14.88
2023-04-10T12:56:06.533Z,15.43
2023-04-10T12:58:33.488Z,15.16
2023-04-10T13:01:11.784Z,15.50
2023-04-10T13:03:38.741Z,15.09
2023-04-10T13:06:08.442Z,15.29
2023-04-10T13:08:35.890Z,15.61
2023-04-10T13:11:06.750Z,15.27
2023-04-10T13:13:33.638Z,15.37
2023-04-10T13:16:00.538Z,15.37
2023-04-10T13:18:27.595Z,15.44
2023-04-10T13:20:54.388Z,15.20
2023-04-10T13:23:21.907Z,15.03
2023-04-10T13:25:48.719Z,15.11
2023-04-10T13:28:16.144Z,15.33
2023-04-10T13:30:43.108Z,14.99
2023-04-10T13:33:10.450Z,15.31
2023-04-10T13:35:37.573Z,15.67
2023-04-10T13:38:04.408Z,15.39
2023-04-10T13:40:31.371Z,14.91
2023-04-10T13:42:58.625Z,15.73
2023-04-10T13:45:25.742Z,15.60
2023-04-10T13:47:52.590Z,15.70
2023-04-10T13:50:21.515Z,15.57
2023-04-10T13:52:48.420Z,15.64
2023-04-10T13:55:15.118Z,15.95
2023-04-10T13:57:42.825Z,15.94
2023-04-10T14:00:10.485Z,15.22
2023-04-10T14:02:40.317Z,15.48
2023-04-10T14:05:07.693Z,15.67
2023-04-10T14:07:34.521Z,15.51
2023-04-10T14:10:02.562Z,16.00
2023-04-10T14:12:29.371Z,16.12
2023-04-10T14:14:56.883Z,16.08
2023-04-10T14:17:24.052Z,15.42
2023-04-10T14:19:52.457Z,15.70
2023-04-10T14:22:19.230Z,16.52
2023-04-10T14:24:52.595Z,16.02
2023-04-10T14:27:23.109Z,16.43
2023-04-10T14:29:54.934Z,16.04
2023-04-10T14:32:22.485Z,16.64
2023-04-10T14:34:49.489Z,16.14
2023-04-10T14:37:17.450Z,16.65
2023-04-10T14:39:44.289Z,17.28
2023-04-10T14:42:11.184Z,17.38
2023-04-10T14:44:38.196Z,17.77
2023-04-10T14:47:08.053Z,17.86
2023-04-10T14:49:35.008Z,17.79
2023-04-10T14:52:01.705Z,18.56
2023-04-10T14:54:28.406Z,18.28
2023-04-10T14:56:58.239Z,18.49
2023-04-10T14:59:25.114Z,18.84
2023-04-10T15:01:54.639Z,19.04
2023-04-10T15:04:21.801Z,19.06
2023-04-10T15:06:51.315Z,18.67
2023-04-10T15:09:19.193Z,19.30
2023-04-10T15:11:47.580Z,19.16
2023-04-10T15:14:14.785Z,19.21
2023-04-10T15:16:42.138Z,19.09
2023-04-10T15:19:14.308Z,19.29
2023-04-10T15:21:42.659Z,19.64
2023-04-10T15:24:12.419Z,19.41
2023-04-10T15:26:42.943Z,19.64
2023-04-10T15:29:09.989Z,19.57
2023-04-10T15:31:37.269Z,19.95
2023-04-10T15:34:04.177Z,19.61
2023-04-10T15:36:34.247Z,20.02
2023-04-10T15:39:03.909Z,19.70
2023-04-10T15:41:32.578Z,19.63
2023-04-10T15:43:59.647Z,19.99
2023-04-10T15:46:27.329Z,19.43
2023-04-10T15:48:54.302Z,19.65
2023-04-10T15:51:21.544Z,19.60
2023-04-10T15:53:48.434Z,19.72
2023-04-10T15:56:16.196Z,19.73
2023-04-10T15:58:43.363Z,19.65
2023-04-10T16:01:10.496Z,20.09
2023-04-10T16:03:37.416Z,20.23
2023-04-10T16:06:04.681Z,20.23
2023-04-10T16:08:31.625Z,20.40
2023-04-10T16:10:58.459Z,20.17
2023-04-10T16:13:25.456Z,20.52
2023-04-10T16:15:54.535Z,20.42
2023-04-10T16:18:21.353Z,20.56
2023-04-10T16:20:48.197Z,21.13
2023-04-10T16:23:16.097Z,21.56
2023-04-10T16:25:42.861Z,21.80
2023-04-10T16:28:09.781Z,21.64
2023-04-10T16:30:36.796Z,21.75
2023-04-10T16:33:04.351Z,21.62
2023-04-10T16:35:31.662Z,22.10
2023-04-10T16:37:59.909Z,22.10
2023-04-10T16:40:32.691Z,22.08
2023-04-10T16:43:01.026Z,22.78
2023-04-10T16:45:29.883Z,22.53
2023-04-10T16:47:56.845Z,22.63
2023-04-10T16:50:24.615Z,22.64
2023-04-10T16:52:51.599Z,22.74
2023-04-10T16:55:20.022Z,22.69
2023-04-10T16:57:46.931Z,22.94
2023-04-10T17:00:17.599Z,23.29
2023-04-10T17:02:50.008Z,23.12
2023-04-10T17:05:17.699Z,23.27
2023-04-10T17:08:19.376Z,23.30
2023-04-10T17:10:46.667Z,23.26
2023-04-10T17:13:23.058Z,23.33
2023-04-10T17:15:50.118Z,23.74
2023-04-10T17:18:17.613Z,23.46
2023-04-10T17:20:47.068Z,23.74
2023-04-10T17:23:15.937Z,24.03
2023-04-10T17:25:42.799Z,24.28
2023-04-10T17:28:09.682Z,24.23
2023-04-10T17:30:36.381Z,24.40
2023-04-10T17:33:03.133Z,24.83
2023-04-10T17:35:29.968Z,24.82
2023-04-10T17:37:57.422Z,25.50
2023-04-10T17:40:25.222Z,25.01
2023-04-10T17:42:52.978Z,25.62
2023-04-10T17:45:19.781Z,25.98
2023-04-10T17:47:46.598Z,26.21
2023-04-10T17:50:13.413Z,26.10
2023-04-10T17:52:40.632Z,26.62
2023-04-10T17:55:07.834Z,26.50
2023-04-10T17:57:35.096Z,26.96
2023-04-10T18:00:01.809Z,26.69
2023-04-10T18:02:28.601Z,27.03
2023-04-10T18:04:56.758Z,27.17
2023-04-10T18:07:23.626Z,27.48
2023-04-10T18:09:50.406Z,27.17
2023-04-10T18:12:17.165Z,27.55
2023-04-10T18:14:45.672Z,27.61
2023-04-10T18:17:12.623Z,27.62
2023-04-10T18:19:39.928Z,28.13
2023-04-10T18:22:07.273Z,27.92
2023-04-10T18:24:34.193Z,27.68
2023-04-10T18:27:01.933Z,28.30
2023-04-10T18:29:31.363Z,28.24
2023-04-10T18:31:58.120Z,28.43
2023-04-10T18:34:24.945Z,28.34
2023-04-10T18:36:52.038Z,28.65
2023-04-10T18:39:19.036Z,28.60
2023-04-10T18:41:45.949Z,28.73
2023-04-10T18:44:12.838Z,28.87
2023-04-10T18:46:46.182Z,29.20
2023-04-10T18:49:17.663Z,28.81
2023-04-10T18:51:50.711Z,29.34
2023-04-10T18:54:17.587Z,29.37
2023-04-10T18:56:44.304Z,29.12
2023-04-10T18:59:10.911Z,29.84
2023-04-10T19:01:39.624Z,29.58
2023-04-10T19:04:06.765Z,29.29
2023-04-10T19:06:35.107Z,29.33
2023-04-10T19:09:01.938Z,29.66
2023-04-10T19:11:28.796Z,29.67
2023-04-10T19:13:55.649Z,29.69
2023-04-10T19:16:22.876Z,29.77
2023-04-10T19:18:49.837Z,30.30
2023-04-10T19:21:17.144Z,30.00
2023-04-10T19:23:43.901Z,30.34
2023-04-10T19:26:10.873Z,30.49
2023-04-10T19:28:37.634Z,30.67
2023-04-10T19:31:04.503Z,30.75
2023-04-10T19:33:31.424Z,30.97
2023-04-10T19:35:59.128Z,31.55
2023-04-10T19:38:27.478Z,31.54
2023-04-10T19:40:54.786Z,31.83
2023-04-10T19:43:23.070Z,32.09
2023-04-10T19:45:53.312Z,32.52
2023-04-10T19:48:24.451Z,32.55
2023-04-10T19:51:06.801Z,32.79
2023-04-10T19:53:39.670Z,32.64
2023-04-10T19:56:06.899Z,32.66
2023-04-10T19:58:40.403Z,32.61
2023-04-10T20:01:08.988Z,33.09
2023-04-10T20:03:36.829Z,32.96
2023-04-10T20:06:04.978Z,33.00
2023-04-10T20:08:36.827Z,33.08
2023-04-10T20:11:13.308Z,33.51
2023-04-10T20:13:51.906Z,33.68
2023-04-10T20:16:27.549Z,33.54
2023-04-10T20:18:57.184Z,33.50
2023-04-10T20:21:24.213Z,33.56
2023-04-10T20:23:51.161Z,33.43
2023-04-10T20:26:17.946Z,33.63
2023-04-10T20:28:49.780Z,33.66
2023-04-10T20:31:23.066Z,33.83
2023-04-10T20:34:19.870Z,34.07
2023-04-10T20:37:13.688Z,33.88
2023-04-10T20:39:40.499Z,34.39
2023-04-10T20:42:07.264Z,34.00
2023-04-10T20:44:40.580Z,34.00
2023-04-10T20:47:07.496Z,34.43
2023-04-10T20:49:37.412Z,34.38
2023-04-10T20:52:07.149Z,34.65
2023-04-10T20:54:34.126Z,34.45
2023-04-10T20:57:06.073Z,35.03
2023-04-10T20:59:38.480Z,34.68
2023-04-10T21:02:06.322Z,35.14
2023-04-10T21:04:33.665Z,34.50
2023-04-10T21:07:00.799Z,34.90
2023-04-10T21:09:27.643Z,34.69
2023-04-10T21:11:54.741Z,34.55
2023-04-10T21:14:21.691Z,34.68
2023-04-10T21:16:49.222Z,34.92
2023-04-10T21:19:20.043Z,34.66
2023-04-10T21:21:50.125Z,34.72
2023-04-10T21:24:17.088Z,34.51
2023-04-10T21:26:43.937Z,35.00
2023-04-10T21:29:14.349Z,35.00
2023-04-10T21:31:41.138Z,35.05
2023-04-10T21:34:11.242Z,35.35
2023-04-10T21:36:42.296Z,34.95
2023-04-10T21:39:09.584Z,35.19
2023-04-10T21:41:38.112Z,35.25
2023-04-10T21:44:08.959Z,36.23
2023-04-10T21:46:56.387Z,35.99
2023-04-10T21:49:30.164Z,35.75
2023-04-10T21:52:38.397Z,36.34
2023-04-10T21:55:06.455Z,35.99
2023-04-10T21:57:33.508Z,36.28
2023-04-10T22:00:01.473Z,36.53
2023-04-10T22:02:42.819Z,36.86
2023-04-10T22:05:24.496Z,36.74
2023-04-10T22:07:57.538Z,36.92
2023-04-10T22:10:24.603Z,36.67
2023-04-10T22:12:51.427Z,36.85
2023-04-10T22:15:24.683Z,36.62
2023-04-10T22:17:51.908Z,36.36
2023-04-10T22:20:18.805Z,36.71
2023-04-10T22:22:51.968Z,36.75
2023-04-10T22:25:18.817Z,36.86
2023-04-10T22:27:45.985Z,37.03
2023-04-10T22:30:16.449Z,37.30
2023-04-10T22:32:45.941Z,36.85
2023-04-10T22:35:16.235Z,37.24
2023-04-10T22:37:55.956Z,37.40
2023-04-10T22:40:29.218Z,37.18
2023-04-10T22:42:56.186Z,37.78
2023-04-10T22:45:24.049Z,38.64
2023-04-10T22:47:58.735Z,39.33
2023-04-10T22:50:25.727Z,41.02
2023-04-10T22:53:00.127Z,42.59
2023-04-10T22:55:31.903Z,43.54
2023-04-10T22:58:01.125Z,44.12
2023-04-10T23:00:28.073Z,44.29
2023-04-10T23:02:55.283Z,44.44
2023-04-10T23:05:22.509Z,44.95
2023-04-10T23:07:49.222Z,45.68
2023-04-10T23:10:16.076Z,47.65
2023-04-10T23:12:42.933Z,48.50
2023-04-10T23:15:13.401Z,49.29
2023-04-10T23:17:42.878Z,49.08
2023-04-10T23:20:10.346Z,49.59
2023-04-10T23:22:37.176Z,50.06
2023-04-10T23:25:05.417Z,51.16
2023-04-10T23:27:42.061Z,51.04
2023-04-10T23:30:09.100Z,50.26
2023-04-10T23:32:36.074Z,50.56
2023-04-10T23:35:02.888Z,50.83
2023-04-10T23:37:29.596Z,50.66
2023-04-10T23:39:56.254Z,51.23
2023-04-10T23:42:23.094Z,51.63
2023-04-10T23:44:50.622Z,52.39
2023-04-10T23:47:17.635Z,52.35
2023-04-10T23:49:45.906Z,52.66
2023-04-10T23:52:12.670Z,53.29
2023-04-10T23:54:39.871Z,53.36
2023-04-10T23:57:08.947Z,53.59
2023-04-10T23:59:38.649Z,54.00
